createdAt,value
2018-11-07T00:02:08.546Z,90.69
2018-11-07T00:04:36.644Z,91.42
2018-11-07T00:07:04.788Z,91.63
2018-11-07T00:09:32.915Z,91.93
2018-11-07T00:12:01.038Z,91.36
2018-11-07T00:14:29.173Z,91.81
2018-11-07T00:16:57.286Z,92.00
2018-11-07T00:19:25.451Z,91.76
2018-11-07T00:21:53.533Z,91.37
2018-11-07T00:24:21.649Z,92.10
2018-11-07T00:26:49.756Z,93.03
2018-11-07T00:29:17.867Z,93.14
2018-11-07T00:31:46.017Z,93.20
2018-11-07T00:34:14.313Z,92.91
2018-11-07T00:36:42.420Z,92.65
2018-11-07T00:39:11.063Z,92.22
2018-11-07T00:41:39.203Z,92.53
2018-11-07T00:44:07.322Z,92.42
2018-11-07T00:46:35.444Z,92.17
2018-11-07T00:49:03.741Z,92.41
2018-11-07T00:51:31.925Z,92.40
2018-11-07T00:54:00.074Z,92.27
2018-11-07T00:56:28.178Z,92.67
2018-11-07T00:58:56.317Z,92.83
2018-11-07T01:01:24.441Z,92.36
2018-11-07T01:03:52.692Z,92.59
2018-11-07T01:06:20.817Z,92.49
2018-11-07T01:08:48.936Z,92.27
2018-11-07T01:11:17.069Z,92.22
2018-11-07T01:13:45.222Z,93.21
2018-11-07T01:16:13.329Z,93.47
2018-11-07T01:18:41.457Z,94.15
2018-11-07T01:21:09.628Z,93.74
2018-11-07T01:23:37.744Z,93.87
2018-11-07T01:26:06.536Z,93.35
2018-11-07T01:28:34.652Z,92.72
2018-11-07T01:31:02.765Z,93.32
2018-11-07T01:33:31.735Z,93.56
2018-11-07T01:35:59.825Z,94.02
2018-11-07T01:38:28.001Z,93.77
2018-11-07T01:40:56.090Z,93.46
2018-11-07T01:43:24.195Z,93.00
2018-11-07T01:45:52.321Z,92.98
2018-11-07T01:48:20.426Z,92.99
2018-11-07T01:50:48.533Z,93.20
2018-11-07T01:53:16.652Z,92.83
2018-11-07T01:55:44.753Z,92.98
2018-11-07T01:58:12.893Z,92.98
2018-11-07T02:00:41.021Z,92.99
2018-11-07T02:03:09.115Z,92.45
2018-11-07T02:05:37.243Z,91.76
2018-11-07T02:08:05.717Z,91.89
2018-11-07T02:10:33.829Z,91.46
2018-11-07T02:13:02.047Z,91.94
2018-11-07T02:15:30.170Z,92.51
2018-11-07T02:17:58.316Z,93.39
2018-11-07T02:20:26.433Z,93.21
2018-11-07T02:22:54.529Z,93.76
2018-11-07T02:25:22.754Z,93.03
2018-11-07T02:27:50.968Z,92.47
2018-11-07T02:30:19.107Z,92.52
2018-11-07T02:32:47.225Z,92.90
2018-11-07T02:35:15.403Z,92.35
2018-11-07T02:37:44.965Z,93.04
2018-11-07T02:40:13.069Z,92.50
2018-11-07T02:42:41.265Z,92.46
2018-11-07T02:45:09.670Z,92.17
2018-11-07T02:47:41.088Z,91.98
2018-11-07T02:50:12.292Z,91.94
2018-11-07T02:52:40.618Z,91.41
2018-11-07T02:55:08.937Z,91.83
2018-11-07T02:57:37.178Z,92.33
2018-11-07T03:00:07.511Z,92.13
2018-11-07T03:02:36.167Z,91.83
2018-11-07T03:05:04.261Z,92.27
2018-11-07T03:07:32.386Z,91.78
2018-11-07T03:10:00.544Z,91.42
2018-11-07T03:12:28.741Z,91.54
2018-11-07T03:14:56.874Z,92.18
2018-11-07T03:17:25.015Z,92.50
2018-11-07T03:19:53.109Z,92.78
2018-11-07T03:22:21.322Z,93.10
2018-11-07T03:24:49.429Z,92.71
2018-11-07T03:27:18.527Z,93.32
2018-11-07T03:29:46.673Z,93.13
2018-11-07T03:32:14.863Z,93.28
2018-11-07T03:34:43.025Z,93.91
2018-11-07T03:37:11.138Z,94.00
2018-11-07T03:39:39.331Z,93.83
2018-11-07T03:42:07.441Z,92.94
2018-11-07T03:44:35.571Z,94.05
2018-11-07T03:47:03.722Z,93.68
2018-11-07T03:49:31.829Z,94.66
2018-11-07T03:51:59.954Z,94.75
2018-11-07T03:54:28.066Z,95.22
2018-11-07T03:56:56.283Z,94.21
2018-11-07T03:59:24.418Z,94.16
2018-11-07T04:01:52.541Z,93.24
2018-11-07T04:04:20.682Z,93.87
2018-11-07T04:06:48.889Z,93.99
2018-11-07T04:09:16.997Z,94.07
2018-11-07T04:11:45.349Z,93.93
2018-11-07T04:14:13.607Z,93.62
2018-11-07T04:16:41.731Z,93.97
2018-11-07T04:19:10.154Z,93.01
2018-11-07T04:21:38.733Z,93.20
2018-11-07T04:24:06.835Z,92.30
2018-11-07T04:26:36.224Z,91.59
2018-11-07T04:29:04.495Z,92.32
2018-11-07T04:31:33.078Z,92.24
2018-11-07T04:34:01.241Z,91.84
2018-11-07T04:36:29.354Z,92.43
2018-11-07T04:38:57.501Z,92.88
2018-11-07T04:41:25.765Z,94.20
2018-11-07T04:43:53.910Z,93.80
2018-11-07T04:46:22.045Z,93.69
2018-11-07T04:48:50.168Z,94.17
2018-11-07T04:51:18.373Z,93.35
2018-11-07T04:53:46.567Z,93.01
2018-11-07T04:56:14.677Z,92.46
2018-11-07T04:58:42.898Z,92.68
2018-11-07T05:01:10.994Z,92.42
2018-11-07T05:03:39.141Z,93.17
2018-11-07T05:06:07.274Z,92.90
2018-11-07T05:08:35.458Z,92.61
2018-11-07T05:11:03.521Z,92.48
2018-11-07T05:13:31.651Z,92.68
2018-11-07T05:16:00.168Z,92.69
2018-11-07T05:18:28.298Z,92.95
2018-11-07T05:20:56.406Z,92.37
2018-11-07T05:23:24.545Z,92.02
2018-11-07T05:25:52.669Z,92.18
2018-11-07T05:28:20.787Z,91.71
2018-11-07T05:30:48.918Z,91.86
2018-11-07T05:33:17.090Z,91.66
2018-11-07T05:35:45.226Z,92.15
2018-11-07T05:38:13.364Z,92.00
2018-11-07T05:40:41.494Z,91.76
2018-11-07T05:43:09.601Z,91.79
2018-11-07T05:45:37.710Z,92.21
2018-11-07T05:48:05.922Z,93.46
2018-11-07T05:50:34.054Z,93.28
2018-11-07T05:53:02.241Z,93.04
2018-11-07T05:55:30.503Z,93.65
2018-11-07T05:57:58.714Z,93.32
2018-11-07T06:00:26.857Z,93.29
2018-11-07T06:02:55.080Z,93.21
2018-11-07T06:05:23.245Z,93.82
2018-11-07T06:07:51.421Z,93.22
2018-11-07T06:10:19.534Z,92.96
2018-11-07T06:12:47.809Z,92.68
2018-11-07T06:15:15.986Z,92.04
2018-11-07T06:17:44.099Z,92.18
2018-11-07T06:20:12.406Z,91.59
2018-11-07T06:22:40.554Z,90.64
2018-11-07T06:25:08.709Z,90.55
2018-11-07T06:27:36.916Z,91.50
2018-11-07T06:30:07.553Z,91.73
2018-11-07T06:32:35.725Z,91.64
2018-11-07T06:35:03.885Z,91.65
2018-11-07T06:37:32.006Z,91.86
2018-11-07T06:40:00.142Z,91.83
2018-11-07T06:42:28.266Z,91.34
2018-11-07T06:44:56.409Z,91.26
2018-11-07T06:47:24.530Z,91.33
2018-11-07T06:49:52.790Z,91.24
2018-11-07T06:52:20.926Z,90.63
2018-11-07T06:54:49.099Z,91.20
2018-11-07T06:57:17.191Z,90.78
2018-11-07T06:59:45.302Z,90.81
2018-11-07T07:02:13.451Z,90.82
2018-11-07T07:04:41.566Z,90.29
2018-11-07T07:07:09.697Z,90.57
2018-11-07T07:09:37.865Z,89.22
2018-11-07T07:12:06.027Z,91.06
2018-11-07T07:14:34.251Z,91.60
2018-11-07T07:17:03.449Z,91.13
2018-11-07T07:19:31.597Z,92.48
2018-11-07T07:21:59.723Z,92.29
2018-11-07T07:24:28.680Z,92.33
2018-11-07T07:26:56.802Z,90.58
2018-11-07T07:29:24.918Z,88.39
2018-11-07T07:31:53.035Z,88.69
2018-11-07T07:34:21.258Z,88.90
2018-11-07T07:36:49.370Z,88.56
2018-11-07T07:39:17.570Z,87.94
2018-11-07T07:41:45.686Z,87.17
2018-11-07T07:44:13.879Z,86.51
2018-11-07T07:46:41.986Z,85.05
2018-11-07T07:49:10.200Z,84.33
2018-11-07T07:51:38.395Z,83.33
2018-11-07T07:54:06.530Z,83.55
2018-11-07T07:56:34.638Z,82.58
2018-11-07T07:59:03.319Z,83.99
2018-11-07T08:01:31.485Z,82.36
2018-11-07T08:03:59.590Z,82.78
2018-11-07T08:06:28.962Z,81.77
2018-11-07T08:08:57.110Z,79.71
2018-11-07T08:11:25.210Z,77.91
2018-11-07T08:13:53.433Z,76.56
2018-11-07T08:16:21.581Z,75.86
2018-11-07T08:18:49.693Z,75.85
2018-11-07T08:21:17.861Z,75.29
2018-11-07T08:23:45.894Z,74.97
2018-11-07T08:26:13.970Z,72.72
2018-11-07T08:28:42.176Z,76.65
2018-11-07T08:31:10.366Z,75.70
2018-11-07T08:33:38.473Z,75.90
2018-11-07T08:36:06.577Z,75.32
2018-11-07T08:38:34.674Z,76.12
2018-11-07T08:41:03.787Z,75.73
2018-11-07T08:43:31.899Z,76.16
2018-11-07T08:46:00.026Z,76.37
2018-11-07T08:48:28.190Z,77.18
2018-11-07T08:50:56.470Z,73.28
2018-11-07T08:53:24.632Z,72.72
2018-11-07T08:55:52.818Z,70.13
2018-11-07T08:58:20.927Z,68.48
2018-11-07T09:00:49.107Z,67.10
2018-11-07T09:03:17.225Z,66.88
2018-11-07T09:05:45.402Z,66.23
2018-11-07T09:08:13.917Z,65.83
2018-11-07T09:10:42.026Z,63.16
2018-11-07T09:13:10.141Z,63.35
2018-11-07T09:15:38.337Z,63.49
2018-11-07T09:18:06.450Z,61.92
2018-11-07T09:20:34.570Z,61.26
2018-11-07T09:23:02.798Z,62.50
2018-11-07T09:25:30.909Z,61.90
2018-11-07T09:27:59.026Z,61.62
2018-11-07T09:30:27.138Z,60.93
2018-11-07T09:32:55.241Z,59.77
2018-11-07T09:35:23.394Z,59.00
2018-11-07T09:37:51.513Z,58.71
2018-11-07T09:40:20.687Z,58.64
2018-11-07T09:42:49.278Z,58.20
2018-11-07T09:45:18.878Z,58.13
2018-11-07T09:47:47.453Z,58.52
2018-11-07T09:50:16.965Z,57.39
2018-11-07T09:52:45.530Z,56.29
2018-11-07T09:55:15.343Z,55.93
2018-11-07T09:57:43.734Z,53.92
2018-11-07T10:00:13.396Z,54.12
2018-11-07T10:02:41.964Z,53.62
2018-11-07T10:05:10.709Z,51.74
2018-11-07T10:07:39.602Z,52.21
2018-11-07T10:10:09.657Z,53.14
2018-11-07T10:12:38.373Z,51.97
2018-11-07T10:15:07.929Z,51.26
2018-11-07T10:17:36.079Z,51.53
2018-11-07T10:20:06.206Z,51.28
2018-11-07T10:22:34.877Z,52.80
2018-11-07T10:25:02.998Z,53.06
2018-11-07T10:27:31.321Z,52.77
2018-11-07T10:29:59.570Z,51.87
2018-11-07T10:32:27.363Z,51.43
2018-11-07T10:34:55.484Z,49.82
2018-11-07T10:37:32.258Z,49.13
2018-11-07T10:39:51.804Z,50.40
2018-11-07T10:42:19.937Z,49.34
2018-11-07T10:44:48.078Z,50.63
2018-11-07T10:47:16.253Z,50.09
2018-11-07T10:49:44.420Z,50.16
2018-11-07T10:52:12.566Z,49.23
2018-11-07T10:54:41.320Z,50.20
2018-11-07T10:57:09.559Z,50.55
2018-11-07T10:59:37.673Z,50.15
2018-11-07T11:02:11.245Z,49.11
2018-11-07T11:04:39.589Z,51.34
2018-11-07T11:07:07.679Z,48.79
2018-11-07T11:09:35.783Z,48.00
2018-11-07T11:12:04.694Z,46.47
2018-11-07T11:14:32.809Z,48.43
2018-11-07T11:17:01.145Z,48.93
2018-11-07T11:19:29.200Z,48.85
2018-11-07T11:21:57.330Z,48.43
2018-11-07T11:24:25.437Z,48.19
2018-11-07T11:26:53.813Z,46.58
2018-11-07T11:29:21.923Z,46.94
2018-11-07T11:31:50.057Z,47.17
2018-11-07T11:34:18.463Z,47.10
2018-11-07T11:36:46.334Z,47.21
2018-11-07T11:39:14.464Z,47.88
2018-11-07T11:41:43.181Z,47.22
2018-11-07T11:44:11.354Z,46.30
2018-11-07T11:46:40.542Z,45.85
2018-11-07T11:49:08.794Z,45.48
2018-11-07T11:51:36.842Z,44.52
2018-11-07T11:54:04.958Z,44.55
2018-11-07T11:56:33.738Z,43.94
2018-11-07T11:59:01.995Z,45.64
2018-11-07T12:01:30.016Z,47.70
2018-11-07T12:03:58.154Z,48.38
2018-11-07T12:06:26.425Z,47.90
2018-11-07T12:08:54.813Z,48.83
2018-11-07T12:11:22.849Z,48.04
2018-11-07T12:13:52.100Z,49.03
2018-11-07T12:16:20.214Z,48.77
2018-11-07T12:18:48.434Z,49.09
2018-11-07T12:21:16.646Z,49.80
2018-11-07T12:23:44.905Z,49.50
2018-11-07T12:26:13.014Z,50.14
2018-11-07T12:28:41.118Z,50.68
2018-11-07T12:31:09.289Z,49.91
2018-11-07T12:33:37.460Z,49.74
2018-11-07T12:36:05.789Z,50.49
2018-11-07T12:38:33.854Z,50.51
2018-11-07T12:41:02.540Z,50.87
2018-11-07T12:43:30.626Z,50.85
2018-11-07T12:45:58.734Z,51.28
2018-11-07T12:48:26.838Z,52.27
2018-11-07T12:50:54.969Z,51.69
2018-11-07T12:53:24.097Z,52.49
2018-11-07T12:55:52.209Z,52.50
2018-11-07T12:58:20.512Z,52.83
2018-11-07T13:00:48.515Z,52.96
2018-11-07T13:03:16.618Z,53.24
2018-11-07T13:05:44.715Z,53.99
2018-11-07T13:08:12.888Z,53.45
2018-11-07T13:10:41.090Z,53.51
2018-11-07T13:13:09.205Z,54.17
2018-11-07T13:15:37.357Z,54.16
2018-11-07T13:18:05.591Z,54.38
2018-11-07T13:20:33.897Z,55.38
2018-11-07T13:23:02.074Z,55.05
2018-11-07T13:25:30.193Z,55.50
2018-11-07T13:27:58.383Z,56.01
2018-11-07T13:30:26.438Z,57.26
2018-11-07T13:32:54.628Z,59.52
2018-11-07T13:35:22.734Z,60.87
2018-11-07T13:37:51.749Z,63.81
2018-11-07T13:40:21.020Z,65.49
2018-11-07T13:42:49.138Z,68.44
2018-11-07T13:45:19.204Z,67.32
2018-11-07T13:47:50.487Z,69.96
2018-11-07T13:50:19.058Z,71.64
2018-11-07T13:52:49.135Z,72.86
2018-11-07T13:55:17.238Z,73.81
2018-11-07T13:57:46.449Z,76.56
2018-11-07T14:00:16.705Z,76.49
2018-11-07T14:02:45.353Z,77.81
2018-11-07T14:05:13.811Z,78.26
2018-11-07T14:07:41.923Z,77.59
2018-11-07T14:10:12.421Z,77.42
2018-11-07T14:12:41.013Z,76.29
2018-11-07T14:15:11.578Z,78.40
2018-11-07T14:17:39.697Z,77.05
2018-11-07T14:20:13.299Z,77.81
2018-11-07T14:22:41.793Z,77.76
2018-11-07T14:25:10.584Z,77.50
2018-11-07T14:27:38.804Z,75.46
2018-11-07T14:30:09.754Z,76.50
2018-11-07T14:32:38.900Z,77.04
2018-11-07T14:35:07.103Z,75.21
2018-11-07T14:37:35.224Z,73.91
2018-11-07T14:40:03.559Z,75.08
2018-11-07T14:42:31.709Z,74.95
2018-11-07T14:44:59.841Z,75.30
2018-11-07T14:47:28.038Z,75.90
2018-11-07T14:49:56.791Z,75.55
2018-11-07T14:52:24.900Z,75.99
2018-11-07T14:54:53.090Z,76.16
2018-11-07T14:57:21.291Z,75.69
2018-11-07T14:59:49.446Z,74.90
2018-11-07T15:02:17.562Z,75.81
2018-11-07T15:04:45.665Z,75.55
2018-11-07T15:07:13.833Z,76.05
2018-11-07T15:09:42.055Z,75.59
2018-11-07T15:12:10.233Z,75.42
2018-11-07T15:14:38.359Z,75.96
2018-11-07T15:17:06.661Z,75.99
2018-11-07T15:19:34.826Z,76.39
2018-11-07T15:22:03.097Z,75.79
2018-11-07T15:24:31.197Z,76.48
2018-11-07T15:26:59.417Z,75.92
2018-11-07T15:29:27.901Z,76.01
2018-11-07T15:31:56.022Z,75.54
2018-11-07T15:34:24.122Z,75.62
2018-11-07T15:36:53.234Z,75.50
2018-11-07T15:39:21.397Z,75.27
2018-11-07T15:41:49.489Z,76.11
2018-11-07T15:44:17.633Z,75.64
2018-11-07T15:46:45.838Z,75.38
2018-11-07T15:49:14.210Z,75.97
2018-11-07T15:51:42.399Z,75.88
2018-11-07T15:54:10.461Z,75.46
2018-11-07T15:56:38.572Z,75.13
2018-11-07T15:59:07.527Z,75.14
2018-11-07T16:01:35.610Z,75.47
2018-11-07T16:04:03.765Z,75.59
2018-11-07T16:06:31.885Z,75.92
2018-11-07T16:09:00.324Z,76.12
2018-11-07T16:11:29.510Z,76.88
2018-11-07T16:13:58.334Z,78.00
2018-11-07T16:16:27.390Z,78.16
2018-11-07T16:18:55.678Z,78.17
2018-11-07T16:21:23.845Z,79.27
2018-11-07T16:23:52.241Z,79.60
2018-11-07T16:26:20.492Z,80.58
2018-11-07T16:28:48.796Z,80.75
2018-11-07T16:31:16.860Z,82.13
2018-11-07T16:33:44.961Z,82.63
2018-11-07T16:39:12.709Z,82.47
2018-11-07T16:41:41.004Z,83.74
2018-11-07T16:44:08.926Z,83.16
2018-11-07T16:46:37.125Z,83.97
2018-11-07T16:49:05.625Z,84.23
2018-11-07T16:51:33.719Z,84.47
2018-11-07T16:54:02.142Z,84.76
2018-11-07T16:56:30.285Z,84.72
2018-11-07T16:58:58.452Z,85.76
2018-11-07T17:01:26.526Z,86.20
2018-11-07T17:03:54.652Z,86.33
2018-11-07T17:06:22.773Z,86.91
2018-11-07T17:08:50.973Z,86.57
2018-11-07T17:11:19.661Z,87.10
2018-11-07T17:13:47.753Z,86.22
2018-11-07T17:16:15.895Z,86.98
2018-11-07T17:18:44.015Z,87.50
2018-11-07T17:21:12.157Z,86.64
2018-11-07T17:23:40.261Z,87.23
2018-11-07T17:26:08.484Z,86.63
2018-11-07T17:28:36.594Z,87.73
2018-11-07T17:31:05.078Z,87.03
2018-11-07T17:33:33.187Z,87.23
2018-11-07T17:36:01.295Z,87.11
2018-11-07T17:38:29.485Z,87.33
2018-11-07T17:40:57.529Z,86.75
2018-11-07T17:43:25.632Z,86.91
2018-11-07T17:45:53.799Z,86.64
2018-11-07T17:48:21.974Z,86.18
2018-11-07T17:50:50.054Z,86.65
2018-11-07T17:53:18.179Z,85.93
2018-11-07T17:55:46.323Z,85.97
2018-11-07T17:58:14.471Z,85.41
2018-11-07T18:00:44.924Z,85.57
2018-11-07T18:03:13.090Z,85.78
2018-11-07T18:05:41.244Z,85.76
2018-11-07T18:08:09.343Z,86.02
2018-11-07T18:10:37.461Z,85.26
2018-11-07T18:13:05.752Z,85.43
2018-11-07T18:15:33.867Z,86.15
2018-11-07T18:18:01.978Z,85.63
2018-11-07T18:20:30.114Z,85.64
2018-11-07T18:22:58.223Z,85.81
2018-11-07T18:25:26.341Z,85.77
2018-11-07T18:27:54.535Z,85.94
2018-11-07T18:30:22.643Z,85.67
2018-11-07T18:32:50.749Z,85.22
2018-11-07T18:35:19.824Z,85.48
2018-11-07T18:37:48.089Z,85.48
2018-11-07T18:40:17.602Z,86.42
2018-11-07T18:42:45.809Z,85.76
2018-11-07T18:45:14.346Z,85.64
2018-11-07T18:47:44.598Z,85.60
2018-11-07T18:50:14.047Z,85.28
2018-11-07T18:52:42.474Z,85.76
2018-11-07T18:55:12.185Z,85.41
2018-11-07T18:57:40.637Z,85.15
2018-11-07T19:00:10.686Z,85.50
2018-11-07T19:02:39.037Z,85.40
2018-11-07T19:05:07.724Z,85.42
2018-11-07T19:07:36.334Z,84.85
2018-11-07T19:10:05.732Z,85.19
2018-11-07T19:12:33.846Z,84.88
2018-11-07T19:15:01.987Z,84.86
2018-11-07T19:17:30.241Z,84.93
2018-11-07T19:19:58.353Z,85.34
2018-11-07T19:22:26.575Z,84.71
2018-11-07T19:24:54.725Z,84.89
2018-11-07T19:27:22.982Z,84.71
2018-11-07T19:29:50.998Z,84.75
2018-11-07T19:32:19.103Z,84.97
2018-11-07T19:34:47.347Z,85.63
2018-11-07T19:37:18.130Z,84.77
2018-11-07T19:39:46.413Z,83.98
2018-11-07T19:42:14.533Z,84.08
2018-11-07T19:44:42.677Z,83.66
2018-11-07T19:47:10.842Z,84.10
2018-11-07T19:49:40.298Z,84.05
2018-11-07T19:52:09.869Z,83.70
2018-11-07T19:54:39.534Z,83.42
2018-11-07T19:57:09.885Z,83.73
2018-11-07T19:59:39.814Z,83.78
2018-11-07T20:02:08.191Z,83.60
2018-11-07T20:04:38.809Z,83.58
2018-11-07T20:07:09.230Z,83.35
2018-11-07T20:09:39.692Z,83.75
2018-11-07T20:12:09.582Z,82.86
2018-11-07T20:14:39.104Z,83.37
2018-11-07T20:17:09.675Z,83.28
2018-11-07T20:19:39.546Z,83.67
2018-11-07T20:22:10.246Z,83.71
2018-11-07T20:24:38.426Z,82.42
2018-11-07T20:27:06.733Z,82.60
2018-11-07T20:29:34.897Z,83.24
2018-11-07T20:32:03.001Z,83.17
2018-11-07T20:34:31.117Z,82.75
2018-11-07T20:36:59.353Z,82.82
2018-11-07T20:39:27.525Z,82.02
2018-11-07T20:41:55.848Z,82.00
2018-11-07T20:44:24.262Z,81.57
2018-11-07T20:46:52.454Z,82.60
2018-11-07T20:49:20.708Z,82.46
2018-11-07T20:51:48.847Z,82.51
2018-11-07T20:54:16.949Z,82.51
2018-11-07T20:56:45.241Z,82.77
2018-11-07T20:59:13.898Z,82.76
2018-11-07T21:01:42.094Z,82.07
2018-11-07T21:04:10.193Z,82.06
2018-11-07T21:06:38.338Z,82.82
2018-11-07T21:09:08.746Z,83.85
2018-11-07T21:11:36.870Z,83.18
2018-11-07T21:14:05.214Z,82.72
2018-11-07T21:16:33.342Z,83.34
2018-11-07T21:19:01.470Z,83.02
2018-11-07T21:21:29.625Z,83.23
2018-11-07T21:23:57.746Z,82.36
2018-11-07T21:26:25.856Z,82.05
2018-11-07T21:28:53.998Z,81.48
2018-11-07T21:31:22.190Z,81.37
2018-11-07T21:33:50.345Z,81.79
2018-11-07T21:36:19.361Z,81.26
2018-11-07T21:38:47.646Z,81.10
2018-11-07T21:41:15.746Z,80.92
2018-11-07T21:43:43.944Z,80.88
2018-11-07T21:46:12.043Z,80.19
2018-11-07T21:48:40.258Z,80.67
2018-11-07T21:51:08.390Z,80.55
2018-11-07T21:53:36.492Z,80.69
2018-11-07T21:56:04.586Z,80.90
2018-11-07T21:58:32.701Z,80.77
2018-11-07T22:01:00.809Z,79.63
2018-11-07T22:03:30.057Z,80.99
2018-11-07T22:05:58.246Z,81.45
2018-11-07T22:08:26.327Z,82.84
2018-11-07T22:10:54.438Z,83.27
2018-11-07T22:13:22.575Z,83.11
2018-11-07T22:15:50.725Z,83.02
2018-11-07T22:18:18.829Z,81.95
2018-11-07T22:20:46.937Z,82.18
2018-11-07T22:23:15.137Z,81.84
2018-11-07T22:25:43.262Z,81.62
2018-11-07T22:28:11.390Z,81.47
2018-11-07T22:30:39.497Z,80.89
2018-11-07T22:33:07.594Z,80.99
2018-11-07T22:35:35.705Z,81.38
2018-11-07T22:38:03.882Z,81.17
2018-11-07T22:40:32.022Z,80.66
2018-11-07T22:43:00.245Z,80.79
2018-11-07T22:45:28.349Z,81.25
2018-11-07T22:47:56.491Z,81.36
2018-11-07T22:50:24.599Z,82.03
2018-11-07T22:52:52.701Z,82.98
2018-11-07T22:55:20.950Z,83.24
2018-11-07T22:57:49.069Z,83.66
2018-11-07T23:00:23.098Z,82.62
2018-11-07T23:02:52.390Z,82.57
2018-11-07T23:05:20.580Z,81.65
2018-11-07T23:07:49.077Z,81.36
2018-11-07T23:10:17.186Z,81.97
2018-11-07T23:12:45.274Z,82.04
2018-11-07T23:15:17.559Z,81.66
2018-11-07T23:17:45.689Z,82.08
2018-11-07T23:20:13.796Z,82.20
2018-11-07T23:22:42.019Z,82.40
2018-11-07T23:25:10.152Z,82.16
2018-11-07T23:27:38.298Z,82.04
2018-11-07T23:30:06.919Z,81.92
2018-11-07T23:32:35.030Z,81.90
2018-11-07T23:35:03.143Z,81.70
2018-11-07T23:37:31.437Z,81.75
2018-11-07T23:39:59.587Z,81.53
2018-11-07T23:42:27.698Z,81.35
2018-11-07T23:44:55.834Z,81.01
2018-11-07T23:47:23.991Z,81.33
2018-11-07T23:49:52.235Z,81.46
2018-11-07T23:52:25.681Z,81.12
2018-11-07T23:54:53.789Z,80.55
2018-11-07T23:57:21.999Z,80.13
2018-11-07T23:59:50.101Z,80.47
